sensor_id;sensor_type;location;lat;lon;timestamp;P1;durP1;ratioP1;P2;durP2;ratioP2
78542;SDS011;67836;52.430;14.446;2023-04-25T00:00:46;6.10;;;2.50;;
78542;SDS011;67836;52.430;14.446;2023-04-25T00:03:31;5.97;;;2.85;;
78542;SDS011;67836;52.430;14.446;2023-04-25T00:06:15;4.63;;;2.65;;
78542;SDS011;67836;52.430;14.446;2023-04-25T00:08:59;8.02;;;3.80;;
78542;SDS011;67836;52.430;14.446;2023-04-25T00:11:43;3.92;;;1.55;;
78542;SDS011;67836;52.430;14.446;2023-04-25T00:14:28;6.45;;;3.63;;
78542;SDS011;67836;52.430;14.446;2023-04-25T00:17:12;5.90;;;3.83;;
78542;SDS011;67836;52.430;14.446;2023-04-25T00:19:56;7.72;;;4.32;;
78542;SDS011;67836;52.430;14.446;2023-04-25T00:22:42;7.10;;;3.97;;
78542;SDS011;67836;52.430;14.446;2023-04-25T00:25:26;7.57;;;4.05;;
78542;SDS011;67836;52.430;14.446;2023-04-25T00:28:10;7.28;;;2.88;;
78542;SDS011;67836;52.430;14.446;2023-04-25T00:30:55;5.90;;;3.35;;
78542;SDS011;67836;52.430;14.446;2023-04-25T00:33:39;8.10;;;4.10;;
78542;SDS011;67836;52.430;14.446;2023-04-25T00:36:23;6.10;;;2.78;;
78542;SDS011;67836;52.430;14.446;2023-04-25T00:39:07;7.63;;;3.10;;
78542;SDS011;67836;52.430;14.446;2023-04-25T00:41:52;6.45;;;3.13;;
78542;SDS011;67836;52.430;14.446;2023-04-25T00:44:38;9.75;;;3.90;;
78542;SDS011;67836;52.430;14.446;2023-04-25T00:47:22;3.20;;;1.77;;
78542;SDS011;67836;52.430;14.446;2023-04-25T00:50:07;5.78;;;2.40;;
78542;SDS011;67836;52.430;14.446;2023-04-25T00:52:51;7.20;;;3.72;;
78542;SDS011;67836;52.430;14.446;2023-04-25T00:55:36;7.38;;;3.58;;
78542;SDS011;67836;52.430;14.446;2023-04-25T00:58:20;8.32;;;3.90;;
78542;SDS011;67836;52.430;14.446;2023-04-25T01:01:08;5.57;;;2.83;;
78542;SDS011;67836;52.430;14.446;2023-04-25T01:03:53;6.60;;;2.97;;
78542;SDS011;67836;52.430;14.446;2023-04-25T01:06:37;7.72;;;3.90;;
78542;SDS011;67836;52.430;14.446;2023-04-25T01:09:22;4.93;;;2.42;;
78542;SDS011;67836;52.430;14.446;2023-04-25T01:12:07;7.68;;;3.08;;
78542;SDS011;67836;52.430;14.446;2023-04-25T01:14:51;5.47;;;2.63;;
78542;SDS011;67836;52.430;14.446;2023-04-25T01:17:35;8.40;;;3.25;;
78542;SDS011;67836;52.430;14.446;2023-04-25T01:20:20;7.57;;;2.70;;
78542;SDS011;67836;52.430;14.446;2023-04-25T01:23:05;3.85;;;1.80;;
78542;SDS011;67836;52.430;14.446;2023-04-25T01:25:49;5.43;;;2.25;;
78542;SDS011;67836;52.430;14.446;2023-04-25T01:28:34;5.95;;;2.45;;
78542;SDS011;67836;52.430;14.446;2023-04-25T01:31:18;7.05;;;2.13;;
78542;SDS011;67836;52.430;14.446;2023-04-25T01:34:03;5.15;;;2.15;;
78542;SDS011;67836;52.430;14.446;2023-04-25T01:36:49;6.20;;;2.45;;
78542;SDS011;67836;52.430;14.446;2023-04-25T01:39:33;4.93;;;2.00;;
78542;SDS011;67836;52.430;14.446;2023-04-25T01:42:18;4.55;;;2.28;;
78542;SDS011;67836;52.430;14.446;2023-04-25T01:45:02;4.80;;;2.30;;
78542;SDS011;67836;52.430;14.446;2023-04-25T01:47:46;6.70;;;2.72;;
78542;SDS011;67836;52.430;14.446;2023-04-25T01:50:32;4.22;;;1.83;;
78542;SDS011;67836;52.430;14.446;2023-04-25T01:53:16;7.30;;;2.92;;
78542;SDS011;67836;52.430;14.446;2023-04-25T01:56:00;5.85;;;3.05;;
78542;SDS011;67836;52.430;14.446;2023-04-25T01:58:45;5.50;;;1.75;;
78542;SDS011;67836;52.430;14.446;2023-04-25T02:01:29;8.32;;;2.10;;
78542;SDS011;67836;52.430;14.446;2023-04-25T02:04:13;4.35;;;2.15;;
78542;SDS011;67836;52.430;14.446;2023-04-25T02:06:57;3.75;;;1.90;;
78542;SDS011;67836;52.430;14.446;2023-04-25T02:09:41;6.07;;;2.42;;
78542;SDS011;67836;52.430;14.446;2023-04-25T02:12:25;6.05;;;2.47;;
78542;SDS011;67836;52.430;14.446;2023-04-25T02:15:11;4.72;;;2.20;;
78542;SDS011;67836;52.430;14.446;2023-04-25T02:17:55;4.50;;;2.05;;
78542;SDS011;67836;52.430;14.446;2023-04-25T02:20:39;4.63;;;1.90;;
78542;SDS011;67836;52.430;14.446;2023-04-25T02:23:23;5.07;;;1.98;;
78542;SDS011;67836;52.430;14.446;2023-04-25T02:28:50;5.05;;;2.10;;
78542;SDS011;67836;52.430;14.446;2023-04-25T02:31:35;3.30;;;1.50;;
78542;SDS011;67836;52.430;14.446;2023-04-25T02:34:19;5.03;;;2.50;;
78542;SDS011;67836;52.430;14.446;2023-04-25T02:37:03;6.47;;;2.42;;
78542;SDS011;67836;52.430;14.446;2023-04-25T02:39:47;4.32;;;1.80;;
78542;SDS011;67836;52.430;14.446;2023-04-25T02:42:31;5.57;;;1.80;;
78542;SDS011;67836;52.430;14.446;2023-04-25T02:45:15;2.67;;;1.35;;
78542;SDS011;67836;52.430;14.446;2023-04-25T02:47:59;6.15;;;2.15;;
78542;SDS011;67836;52.430;14.446;2023-04-25T02:50:44;1.13;;;0.93;;
78542;SDS011;67836;52.430;14.446;2023-04-25T02:53:28;3.47;;;1.67;;
78542;SDS011;67836;52.430;14.446;2023-04-25T02:56:12;7.53;;;2.30;;
78542;SDS011;67836;52.430;14.446;2023-04-25T02:58:56;4.60;;;1.60;;
78542;SDS011;67836;52.430;14.446;2023-04-25T03:01:40;4.95;;;2.20;;
78542;SDS011;67836;52.430;14.446;2023-04-25T03:04:24;3.15;;;1.42;;
78542;SDS011;67836;52.430;14.446;2023-04-25T03:07:08;5.93;;;2.70;;
78542;SDS011;67836;52.430;14.446;2023-04-25T03:09:53;5.63;;;2.53;;
78542;SDS011;67836;52.430;14.446;2023-04-25T03:12:37;5.38;;;2.60;;
78542;SDS011;67836;52.430;14.446;2023-04-25T03:15:21;3.35;;;1.48;;
78542;SDS011;67836;52.430;14.446;2023-04-25T03:18:05;7.82;;;2.13;;
78542;SDS011;67836;52.430;14.446;2023-04-25T03:20:49;4.40;;;1.98;;
78542;SDS011;67836;52.430;14.446;2023-04-25T03:23:33;4.43;;;1.65;;
78542;SDS011;67836;52.430;14.446;2023-04-25T03:26:17;4.88;;;2.58;;
78542;SDS011;67836;52.430;14.446;2023-04-25T03:29:01;3.65;;;1.55;;
78542;SDS011;67836;52.430;14.446;2023-04-25T03:31:46;3.20;;;1.42;;
78542;SDS011;67836;52.430;14.446;2023-04-25T03:34:30;4.40;;;1.80;;
78542;SDS011;67836;52.430;14.446;2023-04-25T03:37:14;6.07;;;1.92;;
78542;SDS011;67836;52.430;14.446;2023-04-25T03:39:58;7.45;;;2.33;;
78542;SDS011;67836;52.430;14.446;2023-04-25T03:42:42;2.45;;;1.45;;
78542;SDS011;67836;52.430;14.446;2023-04-25T03:45:26;3.95;;;1.45;;
78542;SDS011;67836;52.430;14.446;2023-04-25T03:48:10;6.95;;;2.47;;
78542;SDS011;67836;52.430;14.446;2023-04-25T03:50:55;6.65;;;2.83;;
78542;SDS011;67836;52.430;14.446;2023-04-25T03:53:39;4.55;;;2.53;;
78542;SDS011;67836;52.430;14.446;2023-04-25T03:56:23;2.35;;;1.42;;
78542;SDS011;67836;52.430;14.446;2023-04-25T03:59:07;4.45;;;2.08;;
78542;SDS011;67836;52.430;14.446;2023-04-25T04:01:51;5.38;;;2.47;;
78542;SDS011;67836;52.430;14.446;2023-04-25T04:04:35;4.50;;;1.98;;
78542;SDS011;67836;52.430;14.446;2023-04-25T04:07:19;3.75;;;1.58;;
78542;SDS011;67836;52.430;14.446;2023-04-25T04:10:04;3.40;;;1.77;;
78542;SDS011;67836;52.430;14.446;2023-04-25T04:12:49;3.30;;;1.27;;
78542;SDS011;67836;52.430;14.446;2023-04-25T04:15:33;4.20;;;2.13;;
78542;SDS011;67836;52.430;14.446;2023-04-25T04:18:20;5.75;;;1.25;;
78542;SDS011;67836;52.430;14.446;2023-04-25T04:21:05;3.97;;;1.98;;
78542;SDS011;67836;52.430;14.446;2023-04-25T04:23:49;4.68;;;1.98;;
78542;SDS011;67836;52.430;14.446;2023-04-25T04:26:33;7.38;;;2.92;;
78542;SDS011;67836;52.430;14.446;2023-04-25T04:29:18;4.22;;;1.52;;
78542;SDS011;67836;52.430;14.446;2023-04-25T04:32:04;5.80;;;3.05;;
78542;SDS011;67836;52.430;14.446;2023-04-25T04:34:49;5.30;;;1.90;;
78542;SDS011;67836;52.430;14.446;2023-04-25T04:37:32;8.23;;;3.08;;
78542;SDS011;67836;52.430;14.446;2023-04-25T04:40:17;7.95;;;2.90;;
78542;SDS011;67836;52.430;14.446;2023-04-25T04:43:01;7.35;;;1.98;;
78542;SDS011;67836;52.430;14.446;2023-04-25T04:45:45;5.38;;;1.65;;
78542;SDS011;67836;52.430;14.446;2023-04-25T04:48:30;6.90;;;2.70;;
78542;SDS011;67836;52.430;14.446;2023-04-25T04:51:16;4.30;;;1.90;;
78542;SDS011;67836;52.430;14.446;2023-04-25T04:54:00;4.70;;;2.20;;
78542;SDS011;67836;52.430;14.446;2023-04-25T04:56:46;6.50;;;2.15;;
78542;SDS011;67836;52.430;14.446;2023-04-25T04:59:30;3.22;;;1.55;;
78542;SDS011;67836;52.430;14.446;2023-04-25T05:02:14;6.80;;;2.58;;
78542;SDS011;67836;52.430;14.446;2023-04-25T05:04:58;12.68;;;6.05;;
78542;SDS011;67836;52.430;14.446;2023-04-25T05:07:42;5.82;;;2.40;;
78542;SDS011;67836;52.430;14.446;2023-04-25T05:10:26;4.40;;;2.72;;
78542;SDS011;67836;52.430;14.446;2023-04-25T05:13:10;6.15;;;2.17;;
78542;SDS011;67836;52.430;14.446;2023-04-25T05:15:54;3.85;;;1.90;;
78542;SDS011;67836;52.430;14.446;2023-04-25T05:18:39;9.30;;;4.03;;
78542;SDS011;67836;52.430;14.446;2023-04-25T05:21:23;9.40;;;4.15;;
78542;SDS011;67836;52.430;14.446;2023-04-25T05:24:07;9.18;;;4.47;;
78542;SDS011;67836;52.430;14.446;2023-04-25T05:26:51;7.57;;;3.60;;
78542;SDS011;67836;52.430;14.446;2023-04-25T05:29:35;6.72;;;2.88;;
78542;SDS011;67836;52.430;14.446;2023-04-25T05:32:19;4.78;;;2.20;;
78542;SDS011;67836;52.430;14.446;2023-04-25T05:35:04;4.43;;;1.95;;
78542;SDS011;67836;52.430;14.446;2023-04-25T05:37:50;5.20;;;2.35;;
78542;SDS011;67836;52.430;14.446;2023-04-25T05:40:34;4.75;;;2.28;;
78542;SDS011;67836;52.430;14.446;2023-04-25T05:43:18;5.45;;;2.85;;
78542;SDS011;67836;52.430;14.446;2023-04-25T05:46:02;6.15;;;1.98;;
78542;SDS011;67836;52.430;14.446;2023-04-25T05:48:46;14.18;;;2.40;;
78542;SDS011;67836;52.430;14.446;2023-04-25T05:51:30;10.43;;;3.13;;
78542;SDS011;67836;52.430;14.446;2023-04-25T05:54:15;5.85;;;2.03;;
78542;SDS011;67836;52.430;14.446;2023-04-25T05:56:59;6.65;;;3.05;;
78542;SDS011;67836;52.430;14.446;2023-04-25T05:59:43;8.02;;;3.13;;
78542;SDS011;67836;52.430;14.446;2023-04-25T06:02:27;9.10;;;3.70;;
78542;SDS011;67836;52.430;14.446;2023-04-25T06:05:10;8.88;;;4.75;;
78542;SDS011;67836;52.430;14.446;2023-04-25T06:07:55;4.80;;;2.67;;
78542;SDS011;67836;52.430;14.446;2023-04-25T06:10:39;5.95;;;2.80;;
78542;SDS011;67836;52.430;14.446;2023-04-25T06:13:23;10.68;;;3.38;;
78542;SDS011;67836;52.430;14.446;2023-04-25T06:16:07;6.63;;;3.38;;
78542;SDS011;67836;52.430;14.446;2023-04-25T06:18:51;6.05;;;2.92;;
78542;SDS011;67836;52.430;14.446;2023-04-25T06:21:34;9.50;;;3.58;;
78542;SDS011;67836;52.430;14.446;2023-04-25T06:24:18;9.20;;;3.50;;
78542;SDS011;67836;52.430;14.446;2023-04-25T06:27:02;7.45;;;2.45;;
78542;SDS011;67836;52.430;14.446;2023-04-25T06:29:46;7.00;;;2.88;;
78542;SDS011;67836;52.430;14.446;2023-04-25T06:32:30;7.47;;;3.03;;
78542;SDS011;67836;52.430;14.446;2023-04-25T06:35:15;6.85;;;2.75;;
78542;SDS011;67836;52.430;14.446;2023-04-25T06:37:59;8.02;;;3.55;;
78542;SDS011;67836;52.430;14.446;2023-04-25T06:40:43;8.95;;;4.15;;
78542;SDS011;67836;52.430;14.446;2023-04-25T06:43:31;11.18;;;4.72;;
78542;SDS011;67836;52.430;14.446;2023-04-25T06:46:17;6.97;;;3.42;;
78542;SDS011;67836;52.430;14.446;2023-04-25T06:49:01;6.70;;;2.70;;
78542;SDS011;67836;52.430;14.446;2023-04-25T06:51:45;7.18;;;2.95;;
78542;SDS011;67836;52.430;14.446;2023-04-25T06:54:29;4.25;;;2.38;;
78542;SDS011;67836;52.430;14.446;2023-04-25T06:57:13;7.63;;;3.88;;
78542;SDS011;67836;52.430;14.446;2023-04-25T06:59:58;5.88;;;3.25;;
78542;SDS011;67836;52.430;14.446;2023-04-25T07:02:42;9.45;;;4.63;;
78542;SDS011;67836;52.430;14.446;2023-04-25T07:05:27;8.20;;;2.53;;
78542;SDS011;67836;52.430;14.446;2023-04-25T07:08:11;6.47;;;3.25;;
78542;SDS011;67836;52.430;14.446;2023-04-25T07:10:55;6.07;;;2.75;;
78542;SDS011;67836;52.430;14.446;2023-04-25T07:13:39;8.60;;;3.78;;
78542;SDS011;67836;52.430;14.446;2023-04-25T07:16:23;8.13;;;2.75;;
78542;SDS011;67836;52.430;14.446;2023-04-25T07:19:08;6.13;;;3.03;;
78542;SDS011;67836;52.430;14.446;2023-04-25T07:21:52;5.82;;;2.85;;
78542;SDS011;67836;52.430;14.446;2023-04-25T07:24:36;9.85;;;4.93;;
78542;SDS011;67836;52.430;14.446;2023-04-25T07:27:21;8.88;;;3.05;;
78542;SDS011;67836;52.430;14.446;2023-04-25T07:30:05;7.07;;;2.30;;
78542;SDS011;67836;52.430;14.446;2023-04-25T07:32:50;6.38;;;2.92;;
78542;SDS011;67836;52.430;14.446;2023-04-25T07:35:34;6.38;;;2.50;;
78542;SDS011;67836;52.430;14.446;2023-04-25T07:38:18;8.60;;;3.25;;
78542;SDS011;67836;52.430;14.446;2023-04-25T07:41:02;5.65;;;2.65;;
78542;SDS011;67836;52.430;14.446;2023-04-25T07:46:30;7.07;;;3.25;;
78542;SDS011;67836;52.430;14.446;2023-04-25T07:51:57;7.53;;;3.00;;
78542;SDS011;67836;52.430;14.446;2023-04-25T07:54:41;8.27;;;3.35;;
78542;SDS011;67836;52.430;14.446;2023-04-25T07:57:25;10.32;;;3.30;;
78542;SDS011;67836;52.430;14.446;2023-04-25T08:00:09;9.57;;;3.42;;
78542;SDS011;67836;52.430;14.446;2023-04-25T08:02:55;6.88;;;2.28;;
78542;SDS011;67836;52.430;14.446;2023-04-25T08:05:39;6.72;;;3.47;;
78542;SDS011;67836;52.430;14.446;2023-04-25T08:08:23;6.97;;;3.35;;
78542;SDS011;67836;52.430;14.446;2023-04-25T08:11:07;7.53;;;3.80;;
78542;SDS011;67836;52.430;14.446;2023-04-25T08:13:51;6.95;;;3.05;;
78542;SDS011;67836;52.430;14.446;2023-04-25T08:16:35;5.50;;;2.95;;
78542;SDS011;67836;52.430;14.446;2023-04-25T08:19:20;3.67;;;1.98;;
78542;SDS011;67836;52.430;14.446;2023-04-25T08:22:04;7.28;;;2.80;;
78542;SDS011;67836;52.430;14.446;2023-04-25T08:24:48;6.22;;;3.22;;
78542;SDS011;67836;52.430;14.446;2023-04-25T08:27:32;6.25;;;2.70;;
78542;SDS011;67836;52.430;14.446;2023-04-25T08:30:16;7.70;;;3.70;;
78542;SDS011;67836;52.430;14.446;2023-04-25T08:35:44;5.68;;;3.15;;
78542;SDS011;67836;52.430;14.446;2023-04-25T08:38:28;10.95;;;3.45;;
78542;SDS011;67836;52.430;14.446;2023-04-25T08:41:12;7.43;;;3.47;;
78542;SDS011;67836;52.430;14.446;2023-04-25T08:43:57;7.30;;;2.67;;
78542;SDS011;67836;52.430;14.446;2023-04-25T08:46:43;7.80;;;3.25;;
78542;SDS011;67836;52.430;14.446;2023-04-25T08:49:32;6.10;;;3.15;;
78542;SDS011;67836;52.430;14.446;2023-04-25T08:52:19;8.50;;;3.53;;
78542;SDS011;67836;52.430;14.446;2023-04-25T08:55:06;8.82;;;4.32;;
78542;SDS011;67836;52.430;14.446;2023-04-25T08:57:52;13.10;;;6.10;;
78542;SDS011;67836;52.430;14.446;2023-04-25T09:00:38;8.52;;;3.58;;
78542;SDS011;67836;52.430;14.446;2023-04-25T09:03:22;6.88;;;3.47;;
78542;SDS011;67836;52.430;14.446;2023-04-25T09:06:06;9.38;;;5.32;;
78542;SDS011;67836;52.430;14.446;2023-04-25T09:08:50;9.52;;;3.83;;
78542;SDS011;67836;52.430;14.446;2023-04-25T09:11:35;10.13;;;3.95;;
78542;SDS011;67836;52.430;14.446;2023-04-25T09:14:22;10.75;;;4.80;;
78542;SDS011;67836;52.430;14.446;2023-04-25T09:17:06;6.93;;;3.47;;
78542;SDS011;67836;52.430;14.446;2023-04-25T09:19:51;7.15;;;3.90;;
78542;SDS011;67836;52.430;14.446;2023-04-25T09:22:36;6.80;;;3.20;;
78542;SDS011;67836;52.430;14.446;2023-04-25T09:25:22;5.63;;;2.83;;
78542;SDS011;67836;52.430;14.446;2023-04-25T09:28:06;6.43;;;3.47;;
78542;SDS011;67836;52.430;14.446;2023-04-25T09:30:52;8.10;;;4.25;;
78542;SDS011;67836;52.430;14.446;2023-04-25T09:33:40;9.95;;;5.18;;
78542;SDS011;67836;52.430;14.446;2023-04-25T09:36:26;10.05;;;3.97;;
78542;SDS011;67836;52.430;14.446;2023-04-25T09:39:12;6.55;;;3.45;;
78542;SDS011;67836;52.430;14.446;2023-04-25T09:41:58;9.40;;;3.33;;
78542;SDS011;67836;52.430;14.446;2023-04-25T09:44:45;7.32;;;3.67;;
78542;SDS011;67836;52.430;14.446;2023-04-25T09:47:29;10.52;;;4.90;;
78542;SDS011;67836;52.430;14.446;2023-04-25T09:50:14;9.73;;;5.75;;
78542;SDS011;67836;52.430;14.446;2023-04-25T09:53:05;11.65;;;4.90;;
78542;SDS011;67836;52.430;14.446;2023-04-25T09:55:50;12.35;;;5.13;;
78542;SDS011;67836;52.430;14.446;2023-04-25T09:58:35;9.23;;;5.03;;
78542;SDS011;67836;52.430;14.446;2023-04-25T10:01:20;8.50;;;4.80;;
78542;SDS011;67836;52.430;14.446;2023-04-25T10:04:05;8.85;;;5.53;;
78542;SDS011;67836;52.430;14.446;2023-04-25T10:06:50;10.25;;;4.75;;
78542;SDS011;67836;52.430;14.446;2023-04-25T10:09:36;9.75;;;3.53;;
78542;SDS011;67836;52.430;14.446;2023-04-25T10:12:22;8.43;;;4.43;;
78542;SDS011;67836;52.430;14.446;2023-04-25T10:15:07;11.52;;;6.60;;
78542;SDS011;67836;52.430;14.446;2023-04-25T10:17:52;9.43;;;5.00;;
78542;SDS011;67836;52.430;14.446;2023-04-25T10:20:37;8.38;;;3.92;;
78542;SDS011;67836;52.430;14.446;2023-04-25T10:23:21;9.98;;;4.22;;
78542;SDS011;67836;52.430;14.446;2023-04-25T10:26:06;8.07;;;2.95;;
78542;SDS011;67836;52.430;14.446;2023-04-25T10:28:59;13.68;;;4.57;;
78542;SDS011;67836;52.430;14.446;2023-04-25T10:31:45;7.13;;;3.78;;
78542;SDS011;67836;52.430;14.446;2023-04-25T10:34:40;10.27;;;5.25;;
78542;SDS011;67836;52.430;14.446;2023-04-25T10:37:25;8.77;;;3.35;;
78542;SDS011;67836;52.430;14.446;2023-04-25T10:40:10;6.38;;;2.70;;
78542;SDS011;67836;52.430;14.446;2023-04-25T10:42:54;9.82;;;4.00;;
78542;SDS011;67836;52.430;14.446;2023-04-25T10:45:52;9.38;;;2.70;;
78542;SDS011;67836;52.430;14.446;2023-04-25T10:48:36;8.52;;;3.38;;
78542;SDS011;67836;52.430;14.446;2023-04-25T10:51:25;6.53;;;2.80;;
78542;SDS011;67836;52.430;14.446;2023-04-25T10:54:10;7.32;;;2.72;;
78542;SDS011;67836;52.430;14.446;2023-04-25T10:56:55;8.80;;;3.22;;
78542;SDS011;67836;52.430;14.446;2023-04-25T10:59:42;7.90;;;2.40;;
78542;SDS011;67836;52.430;14.446;2023-04-25T11:02:27;7.82;;;2.30;;
78542;SDS011;67836;52.430;14.446;2023-04-25T11:05:16;15.63;;;2.85;;
78542;SDS011;67836;52.430;14.446;2023-04-25T11:08:08;9.25;;;3.05;;
78542;SDS011;67836;52.430;14.446;2023-04-25T11:10:54;10.18;;;3.13;;
78542;SDS011;67836;52.430;14.446;2023-04-25T11:13:38;7.95;;;2.17;;
78542;SDS011;67836;52.430;14.446;2023-04-25T11:16:26;5.50;;;1.90;;
78542;SDS011;67836;52.430;14.446;2023-04-25T11:19:10;7.70;;;2.28;;
78542;SDS011;67836;52.430;14.446;2023-04-25T11:22:00;9.18;;;2.30;;
78542;SDS011;67836;52.430;14.446;2023-04-25T11:24:45;8.25;;;2.00;;
78542;SDS011;67836;52.430;14.446;2023-04-25T11:27:30;2.70;;;1.40;;
78542;SDS011;67836;52.430;14.446;2023-04-25T11:30:14;10.48;;;2.75;;
78542;SDS011;67836;52.430;14.446;2023-04-25T11:33:01;4.90;;;2.03;;
78542;SDS011;67836;52.430;14.446;2023-04-25T11:35:47;5.45;;;1.65;;
78542;SDS011;67836;52.430;14.446;2023-04-25T11:38:31;5.72;;;1.70;;
78542;SDS011;67836;52.430;14.446;2023-04-25T11:41:15;6.68;;;1.80;;
78542;SDS011;67836;52.430;14.446;2023-04-25T11:43:59;5.75;;;2.15;;
78542;SDS011;67836;52.430;14.446;2023-04-25T11:46:44;5.82;;;1.80;;
78542;SDS011;67836;52.430;14.446;2023-04-25T11:49:30;8.13;;;1.92;;
78542;SDS011;67836;52.430;14.446;2023-04-25T11:52:14;8.35;;;2.17;;
78542;SDS011;67836;52.430;14.446;2023-04-25T11:54:59;7.90;;;2.60;;
78542;SDS011;67836;52.430;14.446;2023-04-25T11:57:52;8.80;;;2.10;;
78542;SDS011;67836;52.430;14.446;2023-04-25T12:00:36;5.53;;;1.90;;
78542;SDS011;67836;52.430;14.446;2023-04-25T12:03:20;5.70;;;2.13;;
78542;SDS011;67836;52.430;14.446;2023-04-25T12:06:05;6.97;;;2.20;;
78542;SDS011;67836;52.430;14.446;2023-04-25T12:09:00;6.03;;;2.03;;
78542;SDS011;67836;52.430;14.446;2023-04-25T12:11:49;5.80;;;1.70;;
78542;SDS011;67836;52.430;14.446;2023-04-25T12:14:36;9.35;;;1.88;;
78542;SDS011;67836;52.430;14.446;2023-04-25T12:17:21;9.50;;;1.98;;
78542;SDS011;67836;52.430;14.446;2023-04-25T12:20:09;5.82;;;1.90;;
78542;SDS011;67836;52.430;14.446;2023-04-25T12:22:56;5.35;;;1.48;;
78542;SDS011;67836;52.430;14.446;2023-04-25T12:25:41;6.85;;;1.92;;
78542;SDS011;67836;52.430;14.446;2023-04-25T12:28:26;4.78;;;1.90;;
78542;SDS011;67836;52.430;14.446;2023-04-25T12:31:15;7.57;;;2.75;;
78542;SDS011;67836;52.430;14.446;2023-04-25T12:33:59;7.88;;;2.38;;
78542;SDS011;67836;52.430;14.446;2023-04-25T12:36:43;7.00;;;1.98;;
78542;SDS011;67836;52.430;14.446;2023-04-25T12:39:28;6.45;;;1.75;;
78542;SDS011;67836;52.430;14.446;2023-04-25T12:42:12;5.63;;;1.70;;
78542;SDS011;67836;52.430;14.446;2023-04-25T12:44:56;5.35;;;1.70;;
78542;SDS011;67836;52.430;14.446;2023-04-25T12:47:40;8.60;;;2.38;;
78542;SDS011;67836;52.430;14.446;2023-04-25T12:50:24;5.13;;;1.77;;
78542;SDS011;67836;52.430;14.446;2023-04-25T12:53:10;6.55;;;1.90;;
78542;SDS011;67836;52.430;14.446;2023-04-25T12:55:55;7.00;;;2.05;;
78542;SDS011;67836;52.430;14.446;2023-04-25T12:58:39;6.93;;;1.63;;
78542;SDS011;67836;52.430;14.446;2023-04-25T13:01:24;5.82;;;1.23;;
78542;SDS011;67836;52.430;14.446;2023-04-25T13:04:08;5.55;;;1.60;;
78542;SDS011;67836;52.430;14.446;2023-04-25T13:09:36;4.43;;;1.33;;
78542;SDS011;67836;52.430;14.446;2023-04-25T13:12:20;3.05;;;1.02;;
78542;SDS011;67836;52.430;14.446;2023-04-25T13:15:04;5.88;;;1.60;;
78542;SDS011;67836;52.430;14.446;2023-04-25T13:17:49;5.85;;;1.65;;
78542;SDS011;67836;52.430;14.446;2023-04-25T13:20:33;9.10;;;1.88;;
78542;SDS011;67836;52.430;14.446;2023-04-25T13:23:18;5.53;;;1.52;;
78542;SDS011;67836;52.430;14.446;2023-04-25T13:26:02;7.50;;;2.30;;
78542;SDS011;67836;52.430;14.446;2023-04-25T13:28:46;5.15;;;1.98;;
78542;SDS011;67836;52.430;14.446;2023-04-25T13:31:31;3.78;;;1.40;;
78542;SDS011;67836;52.430;14.446;2023-04-25T13:34:15;7.57;;;2.38;;
78542;SDS011;67836;52.430;14.446;2023-04-25T13:36:59;8.77;;;2.10;;
78542;SDS011;67836;52.430;14.446;2023-04-25T13:39:44;4.43;;;1.17;;
78542;SDS011;67836;52.430;14.446;2023-04-25T13:42:27;7.97;;;2.20;;
78542;SDS011;67836;52.430;14.446;2023-04-25T13:45:11;4.38;;;1.58;;
78542;SDS011;67836;52.430;14.446;2023-04-25T13:47:56;8.23;;;2.00;;
78542;SDS011;67836;52.430;14.446;2023-04-25T13:50:40;5.18;;;1.50;;
78542;SDS011;67836;52.430;14.446;2023-04-25T13:53:23;8.35;;;1.95;;
78542;SDS011;67836;52.430;14.446;2023-04-25T13:56:08;5.43;;;1.75;;
78542;SDS011;67836;52.430;14.446;2023-04-25T13:58:52;5.63;;;1.60;;
78542;SDS011;67836;52.430;14.446;2023-04-25T14:01:36;3.67;;;1.52;;
78542;SDS011;67836;52.430;14.446;2023-04-25T14:04:20;5.57;;;1.38;;
78542;SDS011;67836;52.430;14.446;2023-04-25T14:07:04;4.63;;;0.90;;
78542;SDS011;67836;52.430;14.446;2023-04-25T14:09:48;10.30;;;1.80;;
78542;SDS011;67836;52.430;14.446;2023-04-25T14:15:16;5.50;;;1.40;;
78542;SDS011;67836;52.430;14.446;2023-04-25T14:18:00;6.75;;;1.20;;
78542;SDS011;67836;52.430;14.446;2023-04-25T14:20:45;4.60;;;1.40;;
78542;SDS011;67836;52.430;14.446;2023-04-25T14:23:29;5.35;;;1.60;;
78542;SDS011;67836;52.430;14.446;2023-04-25T14:26:13;4.13;;;1.30;;
78542;SDS011;67836;52.430;14.446;2023-04-25T14:28:57;4.60;;;1.83;;
78542;SDS011;67836;52.430;14.446;2023-04-25T14:31:41;4.90;;;1.67;;
78542;SDS011;67836;52.430;14.446;2023-04-25T14:34:25;4.57;;;1.40;;
78542;SDS011;67836;52.430;14.446;2023-04-25T14:37:09;4.15;;;1.30;;
78542;SDS011;67836;52.430;14.446;2023-04-25T14:42:37;6.60;;;1.67;;
78542;SDS011;67836;52.430;14.446;2023-04-25T14:45:21;2.63;;;0.95;;
78542;SDS011;67836;52.430;14.446;2023-04-25T14:48:05;5.47;;;1.38;;
78542;SDS011;67836;52.430;14.446;2023-04-25T14:50:50;4.07;;;1.02;;
78542;SDS011;67836;52.430;14.446;2023-04-25T14:53:34;4.13;;;1.40;;
78542;SDS011;67836;52.430;14.446;2023-04-25T14:56:18;7.03;;;1.60;;
78542;SDS011;67836;52.430;14.446;2023-04-25T14:59:02;5.20;;;1.25;;
78542;SDS011;67836;52.430;14.446;2023-04-25T15:04:29;2.63;;;1.05;;
78542;SDS011;67836;52.430;14.446;2023-04-25T15:07:13;4.50;;;1.08;;
78542;SDS011;67836;52.430;14.446;2023-04-25T15:09:57;6.53;;;1.80;;
78542;SDS011;67836;52.430;14.446;2023-04-25T15:12:47;6.85;;;2.15;;
78542;SDS011;67836;52.430;14.446;2023-04-25T15:15:32;7.10;;;2.00;;
78542;SDS011;67836;52.430;14.446;2023-04-25T15:18:25;11.05;;;2.40;;
78542;SDS011;67836;52.430;14.446;2023-04-25T15:21:09;6.53;;;2.70;;
78542;SDS011;67836;52.430;14.446;2023-04-25T15:23:53;5.53;;;1.95;;
78542;SDS011;67836;52.430;14.446;2023-04-25T15:26:37;5.30;;;1.50;;
78542;SDS011;67836;52.430;14.446;2023-04-25T15:32:05;5.43;;;1.27;;
78542;SDS011;67836;52.430;14.446;2023-04-25T15:34:49;3.65;;;1.30;;
78542;SDS011;67836;52.430;14.446;2023-04-25T15:37:33;6.88;;;1.52;;
78542;SDS011;67836;52.430;14.446;2023-04-25T15:40:18;6.82;;;1.58;;
78542;SDS011;67836;52.430;14.446;2023-04-25T15:43:02;3.63;;;1.00;;
78542;SDS011;67836;52.430;14.446;2023-04-25T15:45:46;3.08;;;1.10;;
78542;SDS011;67836;52.430;14.446;2023-04-25T15:48:30;4.18;;;2.15;;
78542;SDS011;67836;52.430;14.446;2023-04-25T15:51:15;4.55;;;1.05;;
78542;SDS011;67836;52.430;14.446;2023-04-25T15:53:59;4.22;;;1.35;;
78542;SDS011;67836;52.430;14.446;2023-04-25T15:56:46;4.95;;;1.20;;
78542;SDS011;67836;52.430;14.446;2023-04-25T15:59:31;4.60;;;1.58;;
78542;SDS011;67836;52.430;14.446;2023-04-25T16:02:15;7.15;;;3.08;;
78542;SDS011;67836;52.430;14.446;2023-04-25T16:04:59;10.45;;;4.25;;
78542;SDS011;67836;52.430;14.446;2023-04-25T16:07:44;6.05;;;2.70;;
78542;SDS011;67836;52.430;14.446;2023-04-25T16:10:28;4.97;;;2.28;;
78542;SDS011;67836;52.430;14.446;2023-04-25T16:13:12;6.72;;;1.63;;
78542;SDS011;67836;52.430;14.446;2023-04-25T16:15:57;4.63;;;1.23;;
78542;SDS011;67836;52.430;14.446;2023-04-25T16:18:41;7.35;;;1.83;;
78542;SDS011;67836;52.430;14.446;2023-04-25T16:21:25;6.53;;;1.30;;
78542;SDS011;67836;52.430;14.446;2023-04-25T16:24:11;3.75;;;1.20;;
78542;SDS011;67836;52.430;14.446;2023-04-25T16:26:55;5.28;;;1.45;;
78542;SDS011;67836;52.430;14.446;2023-04-25T16:29:40;6.05;;;1.52;;
78542;SDS011;67836;52.430;14.446;2023-04-25T16:32:24;3.53;;;0.90;;
78542;SDS011;67836;52.430;14.446;2023-04-25T16:35:08;6.78;;;1.77;;
78542;SDS011;67836;52.430;14.446;2023-04-25T16:37:52;3.55;;;1.38;;
78542;SDS011;67836;52.430;14.446;2023-04-25T16:40:36;7.88;;;1.50;;